createdAt,value
2023-03-21T00:09:44.138Z,99682.07
2023-03-21T00:19:51.181Z,99680.95
2023-03-21T00:29:57.986Z,99675.84
2023-03-21T00:40:25.405Z,99673.52
2023-03-21T00:50:34.614Z,99667.84
2023-03-21T01:00:39.324Z,99662.17
2023-03-21T01:10:48.316Z,99662.96
2023-03-21T01:20:54.993Z,99660.20
2023-03-21T01:31:03.500Z,99661.02
2023-03-21T01:41:18.791Z,99662.02
2023-03-21T01:51:30.981Z,99658.55
2023-03-21T02:01:40.504Z,99658.88
2023-03-21T02:11:49.416Z,99658.52
2023-03-21T02:21:58.083Z,99654.04
2023-03-21T02:32:37.422Z,99659.21
2023-03-21T02:43:01.161Z,99660.16
2023-03-21T02:53:13.703Z,99656.68
2023-03-21T03:03:33.068Z,99657.69
2023-03-21T03:13:54.161Z,99654.79
2023-03-21T03:24:10.057Z,99659.11
2023-03-21T03:34:20.824Z,99658.36
2023-03-21T03:44:26.294Z,99658.77
2023-03-21T03:54:41.737Z,99667.55
2023-03-21T04:04:46.249Z,99668.14
2023-03-21T04:14:53.292Z,99670.45
2023-03-21T04:25:01.985Z,99672.77
2023-03-21T04:35:08.683Z,99671.86
2023-03-21T04:45:15.919Z,99673.52
2023-03-21T04:55:23.425Z,99675.51
2023-03-21T05:05:27.313Z,99681.55
2023-03-21T05:15:31.535Z,99688.32
2023-03-21T05:25:39.040Z,99693.35
2023-03-21T05:35:51.886Z,99691.74
2023-03-21T05:45:58.716Z,99697.38
2023-03-21T05:56:09.012Z,99711.23
2023-03-21T06:06:27.942Z,99719.92
2023-03-21T06:16:44.109Z,99723.54
2023-03-21T06:26:48.618Z,99735.31
2023-03-21T06:36:56.615Z,99744.77
2023-03-21T06:47:07.934Z,99760.14
2023-03-21T06:57:13.663Z,99766.95
2023-03-21T07:07:18.379Z,99779.42
2023-03-21T07:17:22.297Z,99786.89
2023-03-21T07:27:27.468Z,99792.02
2023-03-21T07:37:35.911Z,99801.36
2023-03-21T07:47:44.039Z,99814.01
2023-03-21T07:57:54.394Z,99823.62
2023-03-21T08:07:58.070Z,99833.36
2023-03-21T08:18:02.978Z,99839.73
2023-03-21T08:28:06.501Z,99843.34
2023-03-21T08:38:10.329Z,99839.63
2023-03-21T08:48:14.084Z,99855.58
2023-03-21T08:58:18.101Z,99865.14
2023-03-21T09:08:28.561Z,99872.61
2023-03-21T09:18:55.710Z,99884.48
2023-03-21T09:29:01.104Z,99894.41
2023-03-21T09:39:08.317Z,99903.33
2023-03-21T09:49:29.804Z,99909.05
2023-03-21T09:59:41.564Z,99910.96
2023-03-21T10:09:50.221Z,99915.87
2023-03-21T10:20:32.894Z,99919.25
2023-03-21T10:30:42.474Z,99924.64
2023-03-21T10:40:49.073Z,99929.20
2023-03-21T10:50:55.518Z,99928.33
2023-03-21T11:01:13.601Z,99924.58
2023-03-21T11:11:27.861Z,99927.59
2023-03-21T11:21:39.215Z,99928.42
2023-03-21T11:31:43.477Z,99923.73
2023-03-21T11:41:51.973Z,99921.30
2023-03-21T11:52:04.799Z,99922.23
2023-03-21T12:02:44.364Z,99920.61
2023-03-21T12:13:26.680Z,99928.31
2023-03-21T12:23:41.287Z,99923.27
2023-03-21T12:33:59.718Z,99922.54
2023-03-21T12:44:22.542Z,99917.93
2023-03-21T12:54:43.123Z,99924.61
2023-03-21T13:05:19.863Z,99931.38
2023-03-21T13:15:33.776Z,99929.48
2023-03-21T13:25:49.832Z,99932.29
2023-03-21T13:36:43.604Z,99930.23
2023-03-21T13:47:25.749Z,99917.67
2023-03-21T14:10:31.046Z,99906.52
2023-03-21T14:20:38.987Z,99912.61
2023-03-21T14:30:45.840Z,99908.43
2023-03-21T14:40:53.779Z,99909.98
2023-03-21T14:52:14.186Z,99913.06
2023-03-21T15:02:28.405Z,99904.39
2023-03-21T15:12:36.259Z,99902.02
2023-03-21T15:22:46.522Z,99901.27
2023-03-21T15:32:51.457Z,99897.79
2023-03-21T15:43:22.774Z,99895.70
2023-03-21T15:53:27.751Z,99904.51
2023-03-21T16:03:41.924Z,99905.08
2023-03-21T16:13:46.564Z,99897.42
2023-03-21T16:23:52.492Z,99896.74
2023-03-21T16:33:56.167Z,99898.61
2023-03-21T16:44:03.439Z,99895.64
2023-03-21T16:54:07.203Z,99887.78
2023-03-21T17:04:13.184Z,99893.84
2023-03-21T17:14:18.246Z,99898.60
2023-03-21T17:24:23.392Z,99898.31
2023-03-21T17:34:27.447Z,99911.45
2023-03-21T17:44:31.192Z,99914.21
2023-03-21T17:54:36.561Z,99914.46
2023-03-21T18:04:47.107Z,99913.95
2023-03-21T18:15:30.780Z,99921.45
2023-03-21T18:30:22.187Z,99919.58
2023-03-21T18:37:39.479Z,99919.83
2023-03-21T19:10:51.652Z,99927.55
2023-03-21T19:20:58.824Z,99917.77
2023-03-21T19:31:07.862Z,99911.58
2023-03-21T19:41:23.390Z,99897.91
2023-03-21T19:51:30.923Z,99908.85
2023-03-21T20:02:21.574Z,99914.20
2023-03-21T20:12:27.895Z,99915.52
2023-03-21T20:33:05.481Z,99924.46
2023-03-21T20:44:11.694Z,99915.40
2023-03-21T20:53:50.271Z,99917.99
2023-03-21T21:04:03.796Z,99914.52
2023-03-21T21:14:14.474Z,99906.98
2023-03-21T21:24:19.401Z,99907.77
2023-03-21T21:34:25.614Z,99907.39
2023-03-21T21:44:29.576Z,99905.20
2023-03-21T21:54:36.120Z,99899.58
2023-03-21T22:04:40.293Z,99901.71
2023-03-21T22:14:44.101Z,99898.78
2023-03-21T22:24:47.988Z,99898.65
2023-03-21T22:34:51.565Z,99906.50
2023-03-21T22:44:55.536Z,99905.16
2023-03-21T22:55:01.007Z,99901.33
2023-03-21T23:05:04.902Z,99892.15
2023-03-21T23:15:09.816Z,99882.55
2023-03-21T23:25:13.652Z,99873.42
2023-03-21T23:35:17.585Z,99874.17
2023-03-21T23:45:21.457Z,99867.20
2023-03-21T23:55:29.803Z,99851.93
